Time;durP1;ratioP1;P1;durP2;ratioP2;P2;SDS_P1;SDS_P2;PMS_P1;PMS_P2;Temp;Humidity;BMP_temperature;BMP_pressure;BME280_temperature;BME280_humidity;BME280_pressure;Samples;Min_cycle;Max_cycle;Signal;HPM_P1;HPM_P2
2022/12/02 00:00:42;;;;;;;36.17;17.33;;;;;;;-142.75;100.00;79084.81;4933652;28;20313;-63
2022/12/02 00:03:12;;;;;;;49.03;19.13;;;;;;;-142.75;100.00;79074.97;4938842;28;20111;-62
2022/12/02 00:05:37;;;;;;;43.40;19.80;;;;;;;-142.75;100.00;79082.84;4932519;28;20446;-62
2022/12/02 00:08:24;;;;;;;44.97;19.10;;;;;;;-142.75;100.00;79063.16;4944326;28;20312;-63
2022/12/02 00:10:52;;;;;;;31.90;14.38;;;;;;;-142.75;100.00;79059.22;4937738;28;20604;-63
2022/12/02 00:13:24;;;;;;;45.20;17.83;;;;;;;-142.75;100.00;79057.25;4943587;28;20570;-62
2022/12/02 00:15:55;;;;;;;43.23;18.30;;;;;;;-142.75;100.00;79055.28;4931279;28;20097;-62
2022/12/02 00:18:21;;;;;;;41.37;18.90;;;;;;;-142.75;100.00;79055.28;4936919;28;20336;-63
2022/12/02 00:20:48;;;;;;;49.17;20.40;;;;;;;-142.75;100.00;79035.59;4937093;28;20472;-65
2022/12/02 00:23:13;;;;;;;50.92;21.10;;;;;;;-142.75;100.00;79033.63;4941010;28;20244;-62
2022/12/02 00:25:41;;;;;;;48.50;18.90;;;;;;;-142.75;100.00;79019.81;4933152;28;20022;-62
2022/12/02 00:28:07;;;;;;;49.57;21.27;;;;;;;-142.75;100.00;79029.66;4933637;28;20097;-62
2022/12/02 00:30:32;;;;;;;46.28;20.65;;;;;;;-142.75;100.00;79027.69;4942303;28;20402;-62
2022/12/02 00:32:58;;;;;;;52.05;20.17;;;;;;;-142.75;100.00;79015.88;4936358;28;20333;-63
2022/12/02 00:35:24;;;;;;;45.88;20.13;;;;;;;-142.75;100.00;79017.84;4932190;28;20316;-62
2022/12/02 00:37:50;;;;;;;46.55;20.48;;;;;;;-142.75;100.00;79006.03;4934070;28;20329;-63
2022/12/02 00:40:15;;;;;;;;;;;;;;;-142.75;100.00;78994.22;4932943;28;20053;-63
2022/12/02 00:42:41;;;;;;;46.50;21.00;;;;;;;-142.75;100.00;79006.03;4934977;28;20232;-62
2022/12/02 00:47:53;;;;;;;50.33;21.48;;;;;;;-142.75;100.00;79000.13;4944441;28;20405;-59
2022/12/02 00:50:19;;;;;;;47.90;20.58;;;;;;;-142.75;100.00;78996.19;4938799;28;20597;-61
2022/12/02 00:52:44;;;;;;;48.67;21.63;;;;;;;-142.75;100.00;78994.22;4939341;28;20323;-61
2022/12/02 00:55:10;;;;;;;43.38;20.63;;;;;;;-142.75;100.00;78992.25;4933666;28;20330;-61
2022/12/02 00:57:35;;;;;;;51.58;21.00;;;;;;;-142.75;100.00;78994.22;4935393;28;20308;-61
2022/12/02 01:00:05;;;;;;;49.00;20.00;;;;;;;-142.75;100.00;78980.44;4929425;28;20479;-62
2022/12/02 01:02:31;;;;;;;48.73;19.87;;;;;;;-142.75;100.00;78992.25;4931556;28;20166;-59
2022/12/02 01:04:56;;;;;;;42.70;19.80;;;;;;;-142.75;100.00;78980.44;4940174;28;20402;-60
2022/12/02 01:07:22;;;;;;;42.88;19.88;;;;;;;-142.75;100.00;78980.44;4936176;28;20022;-60
2022/12/02 01:09:47;;;;;;;43.72;18.67;;;;;;;-142.75;100.00;78982.41;4928572;28;20329;-61
2022/12/02 01:12:13;;;;;;;51.83;21.95;;;;;;;-142.75;100.00;78994.22;4937677;28;20336;-61
2022/12/02 01:14:38;;;;;;;45.60;20.98;;;;;;;-142.75;100.00;78988.31;4937628;28;20324;-61
2022/12/02 01:17:04;;;;;;;47.63;21.10;;;;;;;-142.75;100.00;78988.31;4933336;28;20355;-61
2022/12/02 01:19:29;;;;;;;52.88;22.13;;;;;;;-142.75;100.00;78992.25;4928300;28;20320;-61
2022/12/02 01:21:55;;;;;;;50.22;21.90;;;;;;;-142.75;100.00;79000.13;4939354;28;20379;-61
2022/12/02 01:24:20;;;;;;;53.03;22.95;;;;;;;-142.75;100.00;79000.13;4929319;28;20419;-61
2022/12/02 01:26:46;;;;;;;55.25;24.90;;;;;;;-142.75;100.00;79021.78;4938447;28;20340;-60
2022/12/02 01:29:11;;;;;;;60.90;24.02;;;;;;;-142.75;100.00;79035.59;4942447;28;20335;-60
2022/12/02 01:31:37;;;;;;;64.50;23.40;;;;;;;-142.75;100.00;79025.72;4942613;28;20192;-61
2022/12/02 01:34:02;;;;;;;57.20;23.67;;;;;;;-142.75;100.00;79031.66;4929159;28;20191;-60
2022/12/02 01:36:28;;;;;;;57.63;23.40;;;;;;;-142.75;100.00;79009.97;4934405;28;20351;-60
2022/12/02 01:38:53;;;;;;;56.35;24.13;;;;;;;-142.75;100.00;79019.81;4929990;28;20300;-60
2022/12/02 01:41:19;;;;;;;63.17;25.05;;;;;;;-142.75;100.00;79013.91;4936324;28;20378;-61
2022/12/02 01:43:44;;;;;;;62.10;23.83;;;;;;;-142.75;100.00;79004.06;4936717;28;20582;-61
2022/12/02 01:46:11;;;;;;;63.15;25.17;;;;;;;-142.75;100.00;79015.88;4938368;28;20396;-60
2022/12/02 01:48:37;;;;;;;64.50;25.92;;;;;;;-142.75;100.00;79031.66;4940535;28;20898;-61
2022/12/02 01:51:04;;;;;;;67.50;25.80;;;;;;;-142.75;100.00;79025.72;4925881;28;20026;-60
2022/12/02 01:53:31;;;;;;;62.27;25.10;;;;;;;-142.75;100.00;79013.91;4925576;28;20025;-61
2022/12/02 01:55:56;;;;;;;58.93;24.77;;;;;;;-142.75;100.00;79027.69;4919295;28;20065;-60
2022/12/02 01:58:28;;;;;;;64.95;26.40;;;;;;;-142.75;100.00;79009.97;4940996;28;20307;-61
2022/12/02 02:00:55;;;;;;;62.73;25.90;;;;;;;-142.75;100.00;79004.06;4935814;28;20022;-60
2022/12/02 02:03:21;;;;;;;58.30;25.43;;;;;;;-142.75;100.00;79009.97;4930412;28;20188;-60
2022/12/02 02:05:47;;;;;;;69.78;27.55;;;;;;;-142.75;100.00;79000.13;4941564;28;20316;-60
2022/12/02 02:08:12;;;;;;;;;;;;;;;-142.75;100.00;79017.84;4933800;28;20528;-60
2022/12/02 02:10:40;;;;;;;56.80;24.03;;;;;;;-142.75;100.00;79015.88;4927543;28;19962;-60
2022/12/02 02:13:07;;;;;;;70.43;27.20;;;;;;;-142.75;100.00;78996.19;4922647;28;20070;-60
2022/12/02 02:15:36;;;;;;;68.33;27.67;;;;;;;-142.75;100.00;78992.25;4937971;28;20104;-60
2022/12/02 02:18:01;;;;;;;66.63;27.07;;;;;;;-142.75;100.00;79035.59;4928051;28;20879;-60
2022/12/02 02:20:27;;;;;;;67.43;26.13;;;;;;;-142.75;100.00;79021.78;4931474;28;20129;-60
2022/12/02 02:23:05;;;;;;;63.33;26.45;;;;;;;-142.75;100.00;79035.59;4937096;28;20026;-60
2022/12/02 02:25:33;;;;;;;69.70;28.07;;;;;;;-142.75;100.00;79031.66;4929698;28;20041;-60
2022/12/02 02:28:00;;;;;;;66.17;27.83;;;;;;;-142.75;100.00;79017.84;4922546;28;20103;-60
2022/12/02 02:30:28;;;;;;;63.80;25.50;;;;;;;-142.75;100.00;79008.00;4929638;28;20026;-60
2022/12/02 02:32:54;;;;;;;68.60;26.27;;;;;;;-142.75;100.00;79011.94;4929000;28;20034;-60
2022/12/02 02:35:20;;;;;;;72.87;28.30;;;;;;;-142.75;100.00;79006.03;4929510;28;20037;-60
2022/12/02 02:37:47;;;;;;;;;;;;;;;-142.75;100.00;78996.19;4933547;28;20025;-60
2022/12/02 02:40:15;;;;;;;69.47;26.75;;;;;;;-142.75;100.00;79011.94;4931227;28;19917;-60
2022/12/02 02:42:43;;;;;;;73.63;28.97;;;;;;;-142.75;100.00;79011.94;4941104;28;20701;-60
2022/12/02 02:45:09;;;;;;;72.47;29.47;;;;;;;-142.75;100.00;79035.59;4936524;28;20137;-59
2022/12/02 02:47:34;;;;;;;61.00;28.88;;;;;;;-142.75;100.00;79055.28;4946133;28;20292;-60
2022/12/02 02:50:00;;;;;;;74.10;29.67;;;;;;;-142.75;100.00;79051.34;4943313;28;20316;-61
2022/12/02 02:52:25;;;;;;;82.85;30.00;;;;;;;-142.75;100.00;79047.41;4942932;28;20308;-60
2022/12/02 02:54:51;;;;;;;74.68;28.80;;;;;;;-142.75;100.00;79051.34;4944336;28;20324;-61
2022/12/02 02:57:16;;;;;;;74.28;29.85;;;;;;;-142.75;100.00;79053.31;4942460;28;20342;-60
2022/12/02 02:59:43;;;;;;;67.93;26.45;;;;;;;-142.75;100.00;79074.97;4945293;28;20330;-61
2022/12/02 03:02:12;;;;;;;69.20;26.87;;;;;;;-142.75;100.00;79090.72;4935619;28;20030;-60
2022/12/02 03:04:39;;;;;;;73.60;26.27;;;;;;;-142.75;100.00;79098.63;4940255;28;20133;-61
2022/12/02 03:07:05;;;;;;;71.17;27.77;;;;;;;-142.75;100.00;79078.91;4945784;28;20827;-60
2022/12/02 03:09:30;;;;;;;65.63;26.63;;;;;;;-142.75;100.00;79110.44;4941883;28;20025;-60
2022/12/02 03:11:57;;;;;;;72.63;29.67;;;;;;;-142.75;100.00;79112.41;4933244;28;20037;-60
2022/12/02 03:14:23;;;;;;;68.17;26.70;;;;;;;-142.75;100.00;79120.28;4944879;28;20137;-60
2022/12/02 03:16:49;;;;;;;68.82;28.42;;;;;;;-142.75;100.00;79126.19;4933908;28;20321;-60
2022/12/02 03:19:16;;;;;;;68.83;27.90;;;;;;;-142.75;100.00;79122.25;4933595;28;20140;-60
2022/12/02 03:21:42;;;;;;;84.00;29.77;;;;;;;-142.75;100.00;79110.44;4939404;28;20133;-60
2022/12/02 03:24:08;;;;;;;67.97;25.85;;;;;;;-142.75;100.00;79106.50;4939557;28;20365;-60
2022/12/02 03:26:35;;;;;;;70.67;27.67;;;;;;;-142.75;100.00;79086.78;4937338;28;20026;-60
2022/12/02 03:29:02;;;;;;;70.20;27.53;;;;;;;-142.75;100.00;79102.56;4941813;28;20125;-60
2022/12/02 03:31:28;;;;;;;70.83;27.00;;;;;;;-142.75;100.00;79096.66;4939692;28;20026;-60
2022/12/02 03:33:55;;;;;;;72.68;28.85;;;;;;;-142.75;100.00;79118.31;4942128;28;20022;-60
2022/12/02 03:36:21;;;;;;;71.33;27.70;;;;;;;-142.75;100.00;79112.41;4936533;28;20030;-61
2022/12/02 03:38:47;;;;;;;;;;;;;;;-142.75;100.00;79118.31;4938818;28;20033;-60
2022/12/02 03:41:13;;;;;;;70.30;25.03;;;;;;;-142.75;100.00;79112.41;4944587;28;20382;-60
2022/12/02 03:43:38;;;;;;;;;;;;;;;-142.75;100.00;79106.50;4941697;28;20527;-60
2022/12/02 03:46:05;;;;;;;75.80;27.47;;;;;;;-142.75;100.00;79090.72;4932988;28;20031;-62
2022/12/02 03:48:33;;;;;;;73.77;27.93;;;;;;;-142.75;100.00;79094.69;4944645;28;20050;-63
2022/12/02 03:50:58;;;;;;;76.43;28.30;;;;;;;-142.75;100.00;79086.78;4930422;28;20026;-62
2022/12/02 03:53:24;;;;;;;69.88;26.70;;;;;;;-142.75;100.00;79067.09;4941271;28;20526;-62
2022/12/02 03:55:50;;;;;;;68.93;25.65;;;;;;;-142.75;100.00;79071.03;4933704;28;20438;-61
2022/12/02 03:58:16;;;;;;;74.28;28.15;;;;;;;-142.75;100.00;79059.22;4943957;28;20335;-63
2022/12/02 04:00:41;;;;;;;71.50;27.52;;;;;;;-142.75;100.00;79059.22;4941598;28;20264;-60
2022/12/02 04:03:07;;;;;;;71.18;26.75;;;;;;;-142.75;100.00;79047.41;4936013;28;20355;-60
2022/12/02 04:05:32;;;;;;;68.47;25.20;;;;;;;-142.75;100.00;79023.75;4932173;28;20325;-60
2022/12/02 04:07:58;;;;;;;67.20;25.75;;;;;;;-142.75;100.00;79045.44;4934058;28;20325;-60
2022/12/02 04:10:24;;;;;;;77.82;28.30;;;;;;;-142.75;100.00;79023.75;4938374;28;20380;-60
2022/12/02 04:12:49;;;;;;;63.60;25.63;;;;;;;-142.75;100.00;79035.59;4935726;28;20386;-60
2022/12/02 04:15:15;;;;;;;72.75;26.80;;;;;;;-142.75;100.00;79015.88;4931237;28;20452;-60
2022/12/02 04:17:40;;;;;;;67.35;25.60;;;;;;;-142.75;100.00;79021.78;4937555;28;20317;-62
2022/12/02 04:20:07;;;;;;;65.47;25.48;;;;;;;-142.75;100.00;79006.03;4938037;28;20329;-60
2022/12/02 04:22:32;;;;;;;67.17;26.90;;;;;;;-142.75;100.00;79043.47;4939442;28;20017;-60
2022/12/02 04:24:59;;;;;;;65.13;24.65;;;;;;;-142.75;100.00;79047.41;4943834;28;20325;-60
2022/12/02 04:27:25;;;;;;;64.33;25.23;;;;;;;-142.75;100.00;79043.47;4943228;28;20044;-60
2022/12/02 04:29:51;;;;;;;73.93;27.97;;;;;;;-142.75;100.00;79027.69;4937621;28;20059;-60
2022/12/02 04:32:17;;;;;;;73.72;28.08;;;;;;;-142.75;100.00;79027.69;4931223;28;20425;-60
2022/12/02 04:34:43;;;;;;;;;;;;;;;-142.75;100.00;79027.69;4935638;28;20026;-60
2022/12/02 04:37:08;;;;;;;66.17;23.23;;;;;;;-142.75;100.00;79043.47;4942191;28;20219;-60
2022/12/02 04:39:34;;;;;;;70.57;26.55;;;;;;;-142.75;100.00;79055.28;4932286;28;20313;-60
2022/12/02 04:41:59;;;;;;;68.47;25.85;;;;;;;-142.75;100.00;79049.38;4938235;28;20348;-60
2022/12/02 04:44:25;;;;;;;68.70;26.48;;;;;;;-142.75;100.00;79045.44;4943021;28;20359;-60
2022/12/02 04:46:50;;;;;;;75.55;25.40;;;;;;;-142.75;100.00;79055.28;4931495;28;20532;-60
2022/12/02 04:49:16;;;;;;;74.53;27.17;;;;;;;-142.75;100.00;79067.09;4941907;28;20401;-60
2022/12/02 04:51:41;;;;;;;64.57;25.50;;;;;;;-142.75;100.00;79073.00;4934028;28;20412;-60
2022/12/02 04:54:07;;;;;;;68.22;25.55;;;;;;;-142.75;100.00;79067.09;4947250;28;20316;-60
2022/12/02 04:56:32;;;;;;;63.40;24.88;;;;;;;-142.75;100.00;79071.03;4944615;28;20324;-60
2022/12/02 04:58:58;;;;;;;77.47;26.60;;;;;;;-142.75;100.00;79059.22;4947620;28;20349;-59
2022/12/02 05:01:24;;;;;;;72.50;25.42;;;;;;;-142.75;100.00;79063.16;4939198;28;20468;-59
2022/12/02 05:03:49;;;;;;;68.60;25.77;;;;;;;-142.75;100.00;79043.47;4932530;28;20511;-60
2022/12/02 05:06:14;;;;;;;68.32;24.13;;;;;;;-142.75;100.00;79031.66;4931137;28;20386;-60
2022/12/02 05:08:40;;;;;;;70.57;24.15;;;;;;;-142.75;100.00;79027.69;4928864;28;20368;-60
2022/12/02 05:11:06;;;;;;;62.03;23.38;;;;;;;-142.75;100.00;79043.47;4937872;28;20422;-59
2022/12/02 05:13:31;;;;;;;67.28;25.35;;;;;;;-142.75;100.00;79047.41;4947331;28;20355;-60
2022/12/02 05:15:57;;;;;;;73.43;25.40;;;;;;;-142.75;100.00;79035.59;4930270;28;20030;-60
2022/12/02 05:18:22;;;;;;;70.55;26.25;;;;;;;-142.75;100.00;79015.88;4942456;28;20493;-61
2022/12/02 05:20:48;;;;;;;76.80;26.13;;;;;;;-142.75;100.00;79025.72;4929147;28;20320;-60
2022/12/02 05:23:13;;;;;;;66.13;25.27;;;;;;;-142.75;100.00;78990.28;4927251;28;20376;-58
2022/12/02 05:25:39;;;;;;;64.95;23.35;;;;;;;-142.75;100.00;79006.03;4936748;28;20375;-60
2022/12/02 05:28:04;;;;;;;65.18;24.27;;;;;;;-142.75;100.00;78998.16;4940724;28;20330;-60
2022/12/02 05:30:30;;;;;;;67.65;24.90;;;;;;;-142.75;100.00;79013.91;4929500;28;20329;-60
2022/12/02 05:32:55;;;;;;;66.38;26.17;;;;;;;-142.75;100.00;79000.13;4938033;28;20336;-62
2022/12/02 05:35:21;;;;;;;72.75;25.52;;;;;;;-142.75;100.00;79013.91;4932688;28;20328;-61
2022/12/02 05:37:46;;;;;;;67.75;25.50;;;;;;;-142.75;100.00;79015.88;4933801;28;20467;-61
2022/12/02 05:40:12;;;;;;;64.43;23.73;;;;;;;-142.75;100.00;79004.06;4938663;28;20145;-61
2022/12/02 05:42:39;;;;;;;63.63;22.30;;;;;;;-142.75;100.00;79009.97;4937465;28;20406;-60
2022/12/02 05:45:30;;;;;;;67.27;24.60;;;;;;;-142.75;100.00;79011.94;4935413;28;20048;-59
2022/12/02 05:47:56;;;;;;;68.33;24.17;;;;;;;-142.75;100.00;79009.97;4936871;28;20033;-61
2022/12/02 05:50:22;;;;;;;68.75;24.17;;;;;;;-142.75;100.00;78992.25;4939231;28;20084;-61
2022/12/02 05:52:48;;;;;;;63.17;22.67;;;;;;;-142.75;100.00;78998.16;4937674;28;20410;-60
2022/12/02 05:55:19;;;;;;;68.45;23.00;;;;;;;-142.75;100.00;78992.25;4928598;28;20357;-60
2022/12/02 05:57:45;;;;;;;61.80;23.93;;;;;;;-142.75;100.00;79002.09;4927019;28;20057;-60
2022/12/02 06:00:19;;;;;;;73.60;25.00;;;;;;;-142.75;100.00;78996.19;4936616;28;20034;-61
2022/12/02 06:02:55;;;;;;;67.27;24.43;;;;;;;-142.75;100.00;78998.16;4931434;28;20026;-60
2022/12/02 06:05:27;;;;;;;64.83;23.67;;;;;;;-142.75;100.00;78996.19;4937785;28;20551;-61
2022/12/02 06:07:55;;;;;;;63.27;23.70;;;;;;;-142.75;100.00;78988.31;4939289;28;20303;-61
2022/12/02 06:10:22;;;;;;;73.13;25.07;;;;;;;-142.75;100.00;79004.06;4935681;28;20023;-60
2022/12/02 06:12:49;;;;;;;62.93;22.27;;;;;;;-142.75;100.00;78984.38;4938224;28;20156;-60
2022/12/02 06:15:15;;;;;;;66.83;23.93;;;;;;;-142.75;100.00;79004.06;4926931;28;20034;-60
2022/12/02 06:17:41;;;;;;;70.80;24.25;;;;;;;-142.75;100.00;78992.25;4932414;28;20322;-60
2022/12/02 06:20:17;;;;;;;59.05;22.77;;;;;;;-142.75;100.00;79009.97;4933926;28;20327;-61
2022/12/02 06:22:42;;;;;;;62.70;22.92;;;;;;;-142.75;100.00;78988.31;4941165;28;20025;-60
2022/12/02 06:25:23;;;;;;;65.70;22.55;;;;;;;-142.75;100.00;78980.44;4926785;28;20133;-60
2022/12/02 06:27:48;;;;;;;59.10;23.27;;;;;;;-142.75;100.00;78988.31;4927120;28;20033;-60
2022/12/02 06:30:14;;;;;;;63.05;23.50;;;;;;;-142.75;100.00;78986.34;4932404;28;20116;-61
2022/12/02 06:32:44;;;;;;;63.08;22.67;;;;;;;-142.75;100.00;78980.44;4931814;28;20427;-59
2022/12/02 06:35:39;;;;;;;66.63;24.33;;;;;;;-142.75;100.00;78996.19;4928946;28;20057;-61
2022/12/02 06:38:21;;;;;;;62.63;23.80;;;;;;;-142.75;100.00;78988.31;4917966;28;20065;-58
2022/12/02 06:40:47;;;;;;;65.17;23.60;;;;;;;-142.75;100.00;78992.25;4926035;28;20064;-61
2022/12/02 06:43:21;;;;;;;62.72;23.23;;;;;;;-142.75;100.00;79011.94;4934767;28;20379;-61
2022/12/02 06:45:47;;;;;;;73.57;25.53;;;;;;;-142.75;100.00;78992.25;4927010;28;20670;-60
2022/12/02 06:48:32;;;;;;;60.50;23.67;;;;;;;-142.75;100.00;79009.97;4985918;22;20055;-69
2022/12/02 06:51:11;;;;;;;64.97;23.30;;;;;;;-142.75;100.00;79041.50;4963214;28;20025;-69
2022/12/02 06:53:39;;;;;;;59.97;21.00;;;;;;;-142.75;100.00;79037.56;4959634;28;20017;-69
2022/12/02 06:56:16;;;;;;;64.67;22.57;;;;;;;-142.75;100.00;79047.41;4961948;28;20022;-69
2022/12/02 06:58:45;;;;;;;64.23;22.80;;;;;;;-142.75;100.00;79071.03;4942264;28;20713;-69
2022/12/02 07:01:13;;;;;;;59.73;20.03;;;;;;;-142.75;100.00;79090.72;4942901;28;20076;-70
2022/12/02 07:03:46;;;;;;;62.50;20.43;;;;;;;-142.75;100.00;79092.69;4942187;28;20033;-68
2022/12/02 07:06:22;;;;;;;63.97;19.13;;;;;;;-142.75;100.00;79098.63;4951637;28;20539;-69
2022/12/02 07:08:48;;;;;;;62.80;21.48;;;;;;;-142.75;100.00;79094.69;4942578;28;20100;-69
2022/12/02 07:14:31;;;;;;;56.33;19.05;;;;;;;-142.75;100.00;79138.00;4942589;28;20372;-69
2022/12/02 07:17:38;;;;;;;48.03;18.27;;;;;;;-142.75;100.00;79130.13;4942668;28;20037;-69
2022/12/02 07:20:10;;;;;;;61.10;19.67;;;;;;;-142.75;100.00;79151.78;4930113;28;20162;-69
2022/12/02 07:22:54;;;;;;;52.37;18.27;;;;;;;-142.75;100.00;79149.81;4944851;28;20018;-68
2022/12/02 07:25:40;;;;;;;49.77;17.63;;;;;;;-142.75;100.00;79130.13;4942785;28;20134;-68
2022/12/02 07:28:32;;;;;;;49.17;17.87;;;;;;;-142.75;100.00;79155.72;4944261;28;20057;-68
2022/12/02 07:31:22;;;;;;;57.20;18.60;;;;;;;-142.75;100.00;79173.47;4928858;28;20281;-69
2022/12/02 07:33:47;;;;;;;46.33;16.57;;;;;;;-142.75;100.00;79185.28;4939228;28;20022;-68
2022/12/02 07:36:13;;;;;;;51.55;17.33;;;;;;;-142.75;100.00;79193.16;4955153;28;20017;-69
2022/12/02 07:38:38;;;;;;;50.13;16.67;;;;;;;-142.75;100.00;79183.31;4936691;28;20507;-68
2022/12/02 07:41:04;;;;;;;49.70;18.65;;;;;;;-142.75;100.00;79173.47;4944384;28;20414;-68
2022/12/02 07:43:30;;;;;;;48.78;17.58;;;;;;;-142.75;100.00;79181.34;4931075;28;20414;-69
2022/12/02 07:45:56;;;;;;;48.95;18.42;;;;;;;-142.75;100.00;79175.44;4939523;28;20026;-68
2022/12/02 07:48:21;;;;;;;54.65;18.10;;;;;;;-142.75;100.00;79204.97;4949131;28;20319;-68
2022/12/02 07:50:46;;;;;;;49.88;17.20;;;;;;;-142.75;100.00;79204.97;4946549;28;20339;-67
2022/12/02 07:53:12;;;;;;;51.83;16.63;;;;;;;-142.75;100.00;79218.75;4945549;28;20025;-67
2022/12/02 07:55:37;;;;;;;40.67;14.68;;;;;;;-142.75;100.00;79216.78;4933666;28;20458;-68
2022/12/02 07:58:03;;;;;;;45.17;17.98;;;;;;;-142.75;100.00;79201.03;4948163;28;20422;-68
2022/12/02 08:00:29;;;;;;;55.08;18.20;;;;;;;-142.75;100.00;79216.78;4931644;28;20419;-70
2022/12/02 08:02:55;;;;;;;49.75;17.30;;;;;;;-142.75;100.00;79208.91;4928157;28;20325;-70
2022/12/02 08:05:21;;;;;;;46.25;18.13;;;;;;;-142.75;100.00;79212.84;4944094;28;20056;-70
2022/12/02 08:07:47;;;;;;;51.37;16.50;;;;;;;-142.75;100.00;79220.75;4945124;28;20103;-70
2022/12/02 08:10:13;;;;;;;42.45;14.73;;;;;;;-142.75;100.00;79206.94;4947598;28;20014;-70
2022/12/02 08:12:39;;;;;;;44.60;16.48;;;;;;;-142.75;100.00;79197.09;4947578;28;20300;-68
2022/12/02 08:15:09;;;;;;;50.65;16.42;;;;;;;-142.75;100.00;79208.91;4943166;28;20359;-68
2022/12/02 08:17:35;;;;;;;47.80;17.27;;;;;;;-142.75;100.00;79224.69;4944909;28;20033;-69
2022/12/02 08:20:03;;;;;;;37.47;13.07;;;;;;;-142.75;100.00;79218.75;4956526;28;20398;-68
2022/12/02 08:22:29;;;;;;;37.67;14.70;;;;;;;-142.75;100.00;79212.84;4945843;28;20104;-68
2022/12/02 08:24:54;;;;;;;41.00;15.18;;;;;;;-142.75;100.00;79210.88;4944965;28;20382;-68
2022/12/02 08:27:21;;;;;;;41.35;14.68;;;;;;;-142.75;100.00;79214.81;4944734;28;20386;-69
2022/12/02 08:29:48;;;;;;;43.13;15.37;;;;;;;-142.75;100.00;79222.72;4944931;28;20045;-69
2022/12/02 08:32:17;;;;;;;40.43;15.00;;;;;;;-142.75;100.00;79208.91;4946838;28;20018;-70
2022/12/02 08:34:43;;;;;;;41.50;14.87;;;;;;;-142.75;100.00;79201.03;4945930;28;20114;-69
2022/12/02 08:37:08;;;;;;;33.20;11.60;;;;;;;-142.75;100.00;79204.97;4957036;28;20029;-68
2022/12/02 08:39:34;;;;;;;37.47;14.48;;;;;;;-142.75;100.00;79187.25;5001752;28;20042;-68
2022/12/02 08:41:59;;;;;;;39.30;14.57;;;;;;;-142.75;100.00;79189.22;5002680;28;20021;-68
2022/12/02 08:44:25;;;;;;;46.10;13.75;;;;;;;-142.75;100.00;79179.38;5001670;28;20029;-68
2022/12/02 08:46:50;;;;;;;38.00;13.60;;;;;;;-142.75;100.00;79199.06;5001753;28;20029;-69
2022/12/02 08:49:15;;;;;;;35.38;13.45;;;;;;;-142.75;100.00;79191.19;5002181;28;20080;-71
2022/12/02 08:51:41;;;;;;;41.10;13.90;;;;;;;-142.75;100.00;79189.22;4999977;28;20033;-71
2022/12/02 08:54:06;;;;;;;32.25;11.95;;;;;;;-142.75;100.00;79191.19;4996434;28;20033;-69
2022/12/02 08:56:32;;;;;;;34.25;12.43;;;;;;;-142.75;100.00;79216.78;4994033;28;20033;-68
2022/12/02 08:58:57;;;;;;;34.10;11.98;;;;;;;-142.75;100.00;79204.97;4995272;28;20403;-69
2022/12/02 09:01:22;;;;;;;40.10;12.90;;;;;;;-142.75;100.00;79204.97;4991703;28;20127;-68
2022/12/02 09:03:48;;;;;;;35.08;13.82;;;;;;;-142.75;100.00;79212.84;4998743;28;20860;-69
2022/12/02 09:06:13;;;;;;;29.92;11.55;;;;;;;-142.75;100.00;79204.97;5001956;28;20026;-69
2022/12/02 09:08:38;;;;;;;26.08;11.15;;;;;;;-142.75;100.00;79220.75;5001337;28;20049;-69
2022/12/02 09:11:04;;;;;;;37.43;12.97;;;;;;;-142.75;100.00;79203.00;4993980;28;20115;-69
2022/12/02 09:13:29;;;;;;;31.13;12.20;;;;;;;-142.75;100.00;79218.75;4958808;28;20438;-69
2022/12/02 09:15:55;;;;;;;34.60;12.35;;;;;;;-142.75;100.00;79201.03;4936306;28;20022;-69
2022/12/02 09:18:20;;;;;;;31.65;12.70;;;;;;;-142.75;100.00;79203.00;4943227;28;20312;-70
2022/12/02 09:20:47;;;;;;;34.30;13.82;;;;;;;-142.75;100.00;79185.28;4935953;28;20384;-69
2022/12/02 09:23:12;;;;;;;35.37;12.50;;;;;;;-142.75;100.00;79173.47;4941667;28;20025;-69
2022/12/02 09:25:38;;;;;;;34.75;13.75;;;;;;;-142.75;100.00;79175.44;4943995;28;20460;-70
2022/12/02 09:28:04;;;;;;;33.85;13.57;;;;;;;-142.75;100.00;79159.69;4943959;28;20362;-69
2022/12/02 09:30:29;;;;;;;41.72;14.30;;;;;;;-142.75;100.00;79169.53;4931831;28;20382;-69
2022/12/02 09:32:54;;;;;;;32.22;13.55;;;;;;;-142.75;100.00;79155.72;4930154;28;20437;-69
2022/12/02 09:35:20;;;;;;;30.75;13.20;;;;;;;-142.75;100.00;79189.22;4944294;28;20320;-69
2022/12/02 09:37:45;;;;;;;32.08;11.85;;;;;;;-142.75;100.00;79187.25;4944579;28;20355;-69
2022/12/02 09:40:11;;;;;;;30.98;12.27;;;;;;;-142.75;100.00;79201.03;4943421;28;20344;-68
2022/12/02 09:42:37;;;;;;;27.75;12.15;;;;;;;-142.75;100.00;79204.97;4945030;28;20323;-69
2022/12/02 09:45:03;;;;;;;23.42;10.30;;;;;;;-142.75;100.00;79197.09;4943522;28;20331;-70
2022/12/02 09:47:29;;;;;;;;;;;;;;;-142.75;100.00;79185.28;4945702;28;20145;-69
2022/12/02 09:49:55;;;;;;;23.33;10.27;;;;;;;-142.75;100.00;79189.22;4942383;28;19914;-73
2022/12/02 09:52:24;;;;;;;33.15;11.82;;;;;;;-142.75;100.00;79181.34;4942806;28;20323;-69
2022/12/02 09:54:55;;;;;;;32.80;12.60;;;;;;;-142.75;100.00;79163.63;4937044;28;20050;-70
2022/12/02 09:57:24;;;;;;;30.40;12.33;;;;;;;-142.75;100.00;79149.81;4930003;28;20022;-68
2022/12/02 09:59:51;;;;;;;29.63;12.40;;;;;;;-142.75;100.00;79139.97;4936632;28;20108;-70
2022/12/02 10:02:50;;;;;;;27.07;11.60;;;;;;;-142.75;100.00;79155.72;4937655;28;20030;-69
2022/12/02 10:05:21;;;;;;;30.33;11.87;;;;;;;-142.75;100.00;79157.72;4911080;28;20875;-70
2022/12/02 10:07:48;;;;;;;28.73;12.47;;;;;;;-142.75;100.00;79151.78;4941408;28;20220;-70
2022/12/02 10:10:17;;;;;;;26.30;10.10;;;;;;;-142.75;100.00;79145.88;4942773;28;20080;-69
2022/12/02 10:12:43;;;;;;;30.47;12.20;;;;;;;-142.75;100.00;79126.19;4945281;28;20594;-72
2022/12/02 10:15:20;;;;;;;26.70;12.18;;;;;;;-142.75;100.00;79116.34;4929477;28;20034;-71
2022/12/02 10:17:46;;;;;;;30.20;12.10;;;;;;;-142.75;100.00;79110.44;4925097;28;20056;-69
2022/12/02 10:20:18;;;;;;;27.30;11.85;;;;;;;-142.75;100.00;79084.81;4936557;28;20348;-70
2022/12/02 10:23:20;;;;;;;27.10;11.33;;;;;;;-142.75;100.00;79074.97;4941402;28;20030;-72
2022/12/02 10:25:49;;;;;;;33.17;12.17;;;;;;;-142.75;100.00;79071.03;4922936;28;20030;-73
2022/12/02 10:28:22;;;;;;;31.57;12.40;;;;;;;-142.75;100.00;79069.06;4942924;28;20026;-73
2022/12/02 10:30:55;;;;;;;30.67;12.00;;;;;;;-142.75;100.00;79051.34;4939271;28;20041;-73
2022/12/02 10:33:27;;;;;;;24.93;10.63;;;;;;;-142.75;100.00;79059.22;4939083;28;20632;-73
2022/12/02 10:35:54;;;;;;;24.50;11.17;;;;;;;-142.75;100.00;79073.00;4947852;28;20117;-72
2022/12/02 10:38:42;;;;;;;25.37;11.03;;;;;;;-142.75;100.00;79073.00;4940813;28;20168;-72
2022/12/02 10:41:14;;;;;;;23.93;11.17;;;;;;;-142.75;100.00;79063.16;4938164;28;20034;-71
2022/12/02 10:44:05;;;;;;;30.83;12.23;;;;;;;-142.75;100.00;79031.66;4941073;28;20029;-71
2022/12/02 10:46:31;;;;;;;26.70;11.33;;;;;;;-142.75;100.00;79025.72;4937719;28;20212;-69
2022/12/02 10:49:26;;;;;;;30.77;11.53;;;;;;;-142.75;100.00;78978.47;4943850;28;20133;-69
2022/12/02 10:51:53;;;;;;;24.33;11.00;;;;;;;-142.75;100.00;78988.31;4931943;28;20049;-70
2022/12/02 10:54:27;;;;;;;23.60;10.17;;;;;;;-142.75;100.00;78978.47;4942804;28;20060;-73
2022/12/02 10:56:54;;;;;;;26.50;10.93;;;;;;;-142.75;100.00;78883.91;4942736;28;20030;-71
2022/12/02 10:59:22;;;;;;;25.93;9.97;;;;;;;-142.75;100.00;78816.94;4940696;28;20026;-70
2022/12/02 11:01:47;;;;;;;24.67;10.60;;;;;;;-142.75;100.00;78826.81;4941743;28;20042;-68
2022/12/02 11:04:14;;;;;;;25.35;10.40;;;;;;;-142.75;100.00;78840.59;4932523;28;20305;-69
2022/12/02 11:06:41;;;;;;;25.67;9.77;;;;;;;-142.75;100.00;78844.53;4939681;28;20021;-68